Terminal Aerodrome Forecast
Issued by NWS

Home | Current Version | Previous Version | Text Only | Print | Product List | Glossary On
Versions: 1 2 3 4 5 6 7 8 9 10 11 12 13
000
FTUS45 KABQ 252342 RRA
TAFFMN
TAF
KFMN 252342Z 2600/2624 01011KT P6SM VCSH BKN060
     FM260300 28010KT P6SM SCT070 SCT120
     FM260800 08006KT P6SM FEW070
     FM261700 26008KT P6SM SCT070=

USA.gov is the U.S. government's official web portal to all federal, state and local government web resources and services.